sensor_id;sensor_type;location;lat;lon;timestamp;pressure;altitude;pressure_sealevel;temperature;humidity
61786;BME280;47692;53.714;11.372;2023-06-14T00:00:45;101341.50;;;14.87;94.26
61786;BME280;47692;53.714;11.372;2023-06-14T00:03:11;101338.88;;;14.85;94.13
61786;BME280;47692;53.714;11.372;2023-06-14T00:05:38;101340.72;;;14.83;94.34
61786;BME280;47692;53.714;11.372;2023-06-14T00:08:11;101342.53;;;14.81;94.51
61786;BME280;47692;53.714;11.372;2023-06-14T00:10:36;101333.75;;;14.82;94.30
61786;BME280;47692;53.714;11.372;2023-06-14T00:13:02;101329.50;;;14.78;94.45
61786;BME280;47692;53.714;11.372;2023-06-14T00:15:29;101333.09;;;14.74;94.81
61786;BME280;47692;53.714;11.372;2023-06-14T00:17:56;101331.38;;;14.73;95.36
61786;BME280;47692;53.714;11.372;2023-06-14T00:20:21;101328.28;;;14.59;95.43
61786;BME280;47692;53.714;11.372;2023-06-14T00:22:47;101326.38;;;14.64;95.14
61786;BME280;47692;53.714;11.372;2023-06-14T00:25:13;101322.94;;;14.62;95.57
61786;BME280;47692;53.714;11.372;2023-06-14T00:27:38;101333.63;;;14.55;95.64
61786;BME280;47692;53.714;11.372;2023-06-14T00:30:04;101333.63;;;14.55;95.93
61786;BME280;47692;53.714;11.372;2023-06-14T00:32:29;101335.28;;;14.60;95.84
61786;BME280;47692;53.714;11.372;2023-06-14T00:34:54;101342.38;;;14.56;96.41
61786;BME280;47692;53.714;11.372;2023-06-14T00:37:20;101330.31;;;14.49;97.53
61786;BME280;47692;53.714;11.372;2023-06-14T00:39:45;101338.16;;;14.50;96.94
61786;BME280;47692;53.714;11.372;2023-06-14T00:42:10;101333.91;;;14.46;97.06
61786;BME280;47692;53.714;11.372;2023-06-14T00:44:36;101334.97;;;14.39;97.41
61786;BME280;47692;53.714;11.372;2023-06-14T00:47:01;101334.13;;;14.38;97.47
61786;BME280;47692;53.714;11.372;2023-06-14T00:49:29;101344.50;;;14.43;97.43
61786;BME280;47692;53.714;11.372;2023-06-14T00:51:54;101353.66;;;14.30;97.99
61786;BME280;47692;53.714;11.372;2023-06-14T00:54:20;101354.28;;;14.38;97.79
61786;BME280;47692;53.714;11.372;2023-06-14T00:56:45;101354.50;;;14.30;97.58
61786;BME280;47692;53.714;11.372;2023-06-14T00:59:10;101352.00;;;14.26;97.90
61786;BME280;47692;53.714;11.372;2023-06-14T01:01:36;101347.78;;;14.20;98.92
61786;BME280;47692;53.714;11.372;2023-06-14T01:04:02;101341.63;;;14.21;98.72
61786;BME280;47692;53.714;11.372;2023-06-14T01:06:56;101342.59;;;14.17;98.82
61786;BME280;47692;53.714;11.372;2023-06-14T01:15:47;101362.44;;;13.96;99.98
61786;BME280;47692;53.714;11.372;2023-06-14T01:18:13;101358.06;;;13.95;100.00
61786;BME280;47692;53.714;11.372;2023-06-14T01:20:45;101355.63;;;13.88;99.72
61786;BME280;47692;53.714;11.372;2023-06-14T01:23:15;101361.63;;;13.94;99.40
61786;BME280;47692;53.714;11.372;2023-06-14T01:25:41;101358.19;;;13.92;99.65
61786;BME280;47692;53.714;11.372;2023-06-14T01:28:10;101362.59;;;13.89;99.55
61786;BME280;47692;53.714;11.372;2023-06-14T01:30:41;101367.03;;;13.87;99.07
61786;BME280;47692;53.714;11.372;2023-06-14T01:33:21;101373.94;;;13.92;98.11
61786;BME280;47692;53.714;11.372;2023-06-14T01:35:52;101366.94;;;13.90;97.68
61786;BME280;47692;53.714;11.372;2023-06-14T01:38:20;101373.09;;;13.89;96.69
61786;BME280;47692;53.714;11.372;2023-06-14T01:40:46;101380.19;;;13.86;96.40
61786;BME280;47692;53.714;11.372;2023-06-14T01:43:14;101376.03;;;13.77;95.51
61786;BME280;47692;53.714;11.372;2023-06-14T01:45:40;101378.66;;;13.77;95.82
61786;BME280;47692;53.714;11.372;2023-06-14T01:48:07;101379.81;;;13.67;95.71
61786;BME280;47692;53.714;11.372;2023-06-14T01:50:33;101377.28;;;13.62;95.16
61786;BME280;47692;53.714;11.372;2023-06-14T01:52:59;101378.31;;;13.56;94.27
61786;BME280;47692;53.714;11.372;2023-06-14T01:55:24;101377.63;;;13.48;94.06
61786;BME280;47692;53.714;11.372;2023-06-14T01:57:51;101380.16;;;13.53;93.99
61786;BME280;47692;53.714;11.372;2023-06-14T02:00:17;101381.03;;;13.52;93.77
61786;BME280;47692;53.714;11.372;2023-06-14T02:02:43;101385.41;;;13.51;93.13
61786;BME280;47692;53.714;11.372;2023-06-14T02:05:09;101384.66;;;13.46;92.39
61786;BME280;47692;53.714;11.372;2023-06-14T02:07:35;101381.50;;;13.30;91.28
61786;BME280;47692;53.714;11.372;2023-06-14T02:10:02;101375.84;;;13.11;91.11
61786;BME280;47692;53.714;11.372;2023-06-14T02:12:27;101384.81;;;13.01;91.54
61786;BME280;47692;53.714;11.372;2023-06-14T02:14:53;101388.38;;;12.97;91.95
61786;BME280;47692;53.714;11.372;2023-06-14T02:17:19;101379.63;;;12.98;92.17
61786;BME280;47692;53.714;11.372;2023-06-14T02:19:44;101380.13;;;12.76;91.60
61786;BME280;47692;53.714;11.372;2023-06-14T02:22:10;101384.75;;;12.61;93.68
61786;BME280;47692;53.714;11.372;2023-06-14T02:24:35;101384.88;;;12.57;94.48
61786;BME280;47692;53.714;11.372;2023-06-14T02:27:01;101389.19;;;12.59;94.25
61786;BME280;47692;53.714;11.372;2023-06-14T02:29:27;101390.63;;;12.73;95.77
61786;BME280;47692;53.714;11.372;2023-06-14T02:31:52;101394.06;;;12.76;97.53
61786;BME280;47692;53.714;11.372;2023-06-14T02:34:17;101381.88;;;12.74;97.38
61786;BME280;47692;53.714;11.372;2023-06-14T02:36:43;101378.50;;;12.69;95.75
61786;BME280;47692;53.714;11.372;2023-06-14T02:39:09;101385.34;;;12.76;96.32
61786;BME280;47692;53.714;11.372;2023-06-14T02:41:34;101398.03;;;12.96;100.00
61786;BME280;47692;53.714;11.372;2023-06-14T02:44:00;101388.25;;;13.03;100.00
61786;BME280;47692;53.714;11.372;2023-06-14T02:46:25;101391.78;;;13.02;100.00
61786;BME280;47692;53.714;11.372;2023-06-14T02:48:50;101393.50;;;13.03;100.00
61786;BME280;47692;53.714;11.372;2023-06-14T02:51:16;101396.06;;;13.06;100.00
61786;BME280;47692;53.714;11.372;2023-06-14T02:53:41;101398.69;;;13.06;100.00
61786;BME280;47692;53.714;11.372;2023-06-14T02:56:06;101395.16;;;13.07;100.00
61786;BME280;47692;53.714;11.372;2023-06-14T02:58:32;101401.44;;;13.00;100.00
61786;BME280;47692;53.714;11.372;2023-06-14T03:00:58;101395.34;;;12.98;100.00
61786;BME280;47692;53.714;11.372;2023-06-14T03:03:29;101398.59;;;13.09;100.00
61786;BME280;47692;53.714;11.372;2023-06-14T03:05:54;101396.81;;;13.11;100.00
61786;BME280;47692;53.714;11.372;2023-06-14T03:08:19;101395.09;;;13.10;100.00
61786;BME280;47692;53.714;11.372;2023-06-14T03:10:48;101395.69;;;13.21;100.00
61786;BME280;47692;53.714;11.372;2023-06-14T03:13:15;101398.31;;;13.21;100.00
61786;BME280;47692;53.714;11.372;2023-06-14T03:15:41;101404.63;;;13.14;100.00
61786;BME280;47692;53.714;11.372;2023-06-14T03:18:08;101395.09;;;13.10;100.00
61786;BME280;47692;53.714;11.372;2023-06-14T03:20:35;101388.13;;;13.09;100.00
61786;BME280;47692;53.714;11.372;2023-06-14T03:23:01;101396.91;;;13.08;99.61
61786;BME280;47692;53.714;11.372;2023-06-14T03:25:28;101402.25;;;13.03;98.47
61786;BME280;47692;53.714;11.372;2023-06-14T03:27:55;101410.22;;;12.97;97.97
61786;BME280;47692;53.714;11.372;2023-06-14T03:30:20;101405.97;;;12.91;97.10
61786;BME280;47692;53.714;11.372;2023-06-14T03:32:46;101414.81;;;12.87;96.88
61786;BME280;47692;53.714;11.372;2023-06-14T03:35:11;101410.31;;;12.92;96.90
61786;BME280;47692;53.714;11.372;2023-06-14T03:37:45;101409.66;;;12.84;96.76
61786;BME280;47692;53.714;11.372;2023-06-14T03:40:12;101416.72;;;12.79;96.55
61786;BME280;47692;53.714;11.372;2023-06-14T03:42:38;101421.94;;;12.79;96.05
61786;BME280;47692;53.714;11.372;2023-06-14T03:45:04;101420.31;;;12.75;96.36
61786;BME280;47692;53.714;11.372;2023-06-14T03:47:29;101429.13;;;12.71;96.40
61786;BME280;47692;53.714;11.372;2023-06-14T03:49:55;101427.41;;;12.70;97.03
61786;BME280;47692;53.714;11.372;2023-06-14T03:52:21;101422.94;;;12.75;97.39
61786;BME280;47692;53.714;11.372;2023-06-14T03:54:47;101429.78;;;12.82;98.19
61786;BME280;47692;53.714;11.372;2023-06-14T03:57:12;101434.16;;;12.80;98.68
61786;BME280;47692;53.714;11.372;2023-06-14T03:59:38;101431.59;;;12.79;99.45
61786;BME280;47692;53.714;11.372;2023-06-14T04:02:03;101426.22;;;12.85;99.76
61786;BME280;47692;53.714;11.372;2023-06-14T04:04:28;101432.31;;;12.85;100.00
61786;BME280;47692;53.714;11.372;2023-06-14T04:06:57;101432.25;;;12.88;99.97
61786;BME280;47692;53.714;11.372;2023-06-14T04:09:24;101430.81;;;12.73;99.85
61786;BME280;47692;53.714;11.372;2023-06-14T04:11:51;101434.66;;;12.55;100.00
61786;BME280;47692;53.714;11.372;2023-06-14T04:14:18;101430.34;;;12.53;100.00
61786;BME280;47692;53.714;11.372;2023-06-14T04:16:43;101431.13;;;12.58;100.00
61786;BME280;47692;53.714;11.372;2023-06-14T04:19:09;101432.63;;;12.70;100.00
61786;BME280;47692;53.714;11.372;2023-06-14T04:21:34;101436.75;;;12.82;100.00
61786;BME280;47692;53.714;11.372;2023-06-14T04:24:00;101437.50;;;12.88;100.00
61786;BME280;47692;53.714;11.372;2023-06-14T04:26:26;101445.16;;;12.99;100.00
61786;BME280;47692;53.714;11.372;2023-06-14T04:28:55;101445.00;;;13.05;100.00
61786;BME280;47692;53.714;11.372;2023-06-14T04:31:22;101440.53;;;13.09;100.00
61786;BME280;47692;53.714;11.372;2023-06-14T04:33:50;101444.75;;;13.16;100.00
61786;BME280;47692;53.714;11.372;2023-06-14T04:36:15;101437.66;;;13.21;100.00
61786;BME280;47692;53.714;11.372;2023-06-14T04:38:42;101443.34;;;13.42;100.00
61786;BME280;47692;53.714;11.372;2023-06-14T04:41:10;101453.47;;;13.57;100.00
61786;BME280;47692;53.714;11.372;2023-06-14T04:43:37;101446.22;;;13.69;100.00
61786;BME280;47692;53.714;11.372;2023-06-14T04:46:06;101453.03;;;13.76;100.00
61786;BME280;47692;53.714;11.372;2023-06-14T04:48:39;101454.31;;;13.96;100.00
61786;BME280;47692;53.714;11.372;2023-06-14T04:51:07;101453.41;;;13.97;100.00
61786;BME280;47692;53.714;11.372;2023-06-14T04:53:32;101455.97;;;14.00;100.00
61786;BME280;47692;53.714;11.372;2023-06-14T04:55:58;101453.00;;;14.12;100.00
61786;BME280;47692;53.714;11.372;2023-06-14T04:58:23;101460.41;;;14.31;100.00
61786;BME280;47692;53.714;11.372;2023-06-14T05:00:48;101462.13;;;14.32;100.00
61786;BME280;47692;53.714;11.372;2023-06-14T05:03:14;101472.75;;;14.29;100.00
61786;BME280;47692;53.714;11.372;2023-06-14T05:05:40;101465.75;;;14.28;100.00
61786;BME280;47692;53.714;11.372;2023-06-14T05:08:06;101468.97;;;14.39;100.00
61786;BME280;47692;53.714;11.372;2023-06-14T05:10:31;101462.88;;;14.37;100.00
61786;BME280;47692;53.714;11.372;2023-06-14T05:12:56;101462.84;;;14.38;100.00
61786;BME280;47692;53.714;11.372;2023-06-14T05:15:22;101467.06;;;14.44;100.00
61786;BME280;47692;53.714;11.372;2023-06-14T05:17:50;101467.63;;;14.55;100.00
61786;BME280;47692;53.714;11.372;2023-06-14T05:20:19;101472.47;;;14.73;99.51
61786;BME280;47692;53.714;11.372;2023-06-14T05:22:45;101474.97;;;14.77;99.08
61786;BME280;47692;53.714;11.372;2023-06-14T05:25:10;101471.09;;;14.91;98.68
61786;BME280;47692;53.714;11.372;2023-06-14T05:27:35;101470.63;;;15.06;96.14
61786;BME280;47692;53.714;11.372;2023-06-14T05:30:02;101480.84;;;15.15;94.93
61786;BME280;47692;53.714;11.372;2023-06-14T05:32:29;101481.69;;;15.17;93.24
61786;BME280;47692;53.714;11.372;2023-06-14T05:34:54;101480.84;;;15.15;92.56
61786;BME280;47692;53.714;11.372;2023-06-14T05:37:19;101480.59;;;15.25;92.92
61786;BME280;47692;53.714;11.372;2023-06-14T05:39:45;101481.06;;;15.38;92.00
61786;BME280;47692;53.714;11.372;2023-06-14T05:42:10;101481.66;;;15.47;89.42
61786;BME280;47692;53.714;11.372;2023-06-14T05:44:36;101479.84;;;15.49;89.55
61786;BME280;47692;53.714;11.372;2023-06-14T05:47:01;101479.47;;;15.62;89.39
61786;BME280;47692;53.714;11.372;2023-06-14T05:49:26;101476.78;;;15.63;88.39
61786;BME280;47692;53.714;11.372;2023-06-14T05:51:52;101474.84;;;15.68;87.87
61786;BME280;47692;53.714;11.372;2023-06-14T05:54:17;101474.00;;;15.68;87.25
61786;BME280;47692;53.714;11.372;2023-06-14T05:56:42;101480.78;;;15.75;87.18
61786;BME280;47692;53.714;11.372;2023-06-14T05:59:08;101482.50;;;15.76;86.04
61786;BME280;47692;53.714;11.372;2023-06-14T06:01:33;101485.50;;;15.94;85.89
61786;BME280;47692;53.714;11.372;2023-06-14T06:03:59;101485.38;;;15.97;85.02
61786;BME280;47692;53.714;11.372;2023-06-14T06:06:24;101490.91;;;15.89;83.46
61786;BME280;47692;53.714;11.372;2023-06-14T06:08:50;101490.22;;;16.09;84.11
61786;BME280;47692;53.714;11.372;2023-06-14T06:11:15;101488.31;;;16.14;81.21
61786;BME280;47692;53.714;11.372;2023-06-14T06:13:40;101488.44;;;16.10;80.86
61786;BME280;47692;53.714;11.372;2023-06-14T06:16:06;101490.03;;;16.15;79.99
61786;BME280;47692;53.714;11.372;2023-06-14T06:18:31;101489.06;;;16.18;79.71
61786;BME280;47692;53.714;11.372;2023-06-14T06:20:57;101494.88;;;16.28;79.96
61786;BME280;47692;53.714;11.372;2023-06-14T06:23:22;101499.09;;;16.34;79.25
61786;BME280;47692;53.714;11.372;2023-06-14T06:25:47;101499.06;;;16.59;78.89
61786;BME280;47692;53.714;11.372;2023-06-14T06:28:13;101500.16;;;16.53;78.60
61786;BME280;47692;53.714;11.372;2023-06-14T06:30:38;101498.94;;;16.62;79.65
61786;BME280;47692;53.714;11.372;2023-06-14T06:33:03;101500.69;;;16.87;78.78
61786;BME280;47692;53.714;11.372;2023-06-14T06:35:29;101498.06;;;16.87;78.05
61786;BME280;47692;53.714;11.372;2023-06-14T06:37:55;101505.06;;;16.88;78.11
61786;BME280;47692;53.714;11.372;2023-06-14T06:40:21;101499.78;;;16.88;78.64
61786;BME280;47692;53.714;11.372;2023-06-14T06:42:46;101504.09;;;16.90;78.05
61786;BME280;47692;53.714;11.372;2023-06-14T06:45:12;101505.88;;;16.90;78.31
61786;BME280;47692;53.714;11.372;2023-06-14T06:47:37;101508.50;;;16.91;77.77
61786;BME280;47692;53.714;11.372;2023-06-14T06:50:02;101504.66;;;17.00;77.61
61786;BME280;47692;53.714;11.372;2023-06-14T06:52:28;101511.41;;;17.07;78.01
61786;BME280;47692;53.714;11.372;2023-06-14T06:54:54;101508.38;;;17.18;78.48
61786;BME280;47692;53.714;11.372;2023-06-14T06:57:21;101511.47;;;17.30;77.78
61786;BME280;47692;53.714;11.372;2023-06-14T06:59:48;101518.25;;;17.37;78.54
61786;BME280;47692;53.714;11.372;2023-06-14T07:02:13;101515.28;;;17.44;77.11
61786;BME280;47692;53.714;11.372;2023-06-14T07:04:38;101511.09;;;17.39;76.63
61786;BME280;47692;53.714;11.372;2023-06-14T07:07:04;101513.44;;;17.47;76.20
61786;BME280;47692;53.714;11.372;2023-06-14T07:09:29;101504.50;;;17.51;75.19
61786;BME280;47692;53.714;11.372;2023-06-14T07:11:54;101505.03;;;17.59;75.39
61786;BME280;47692;53.714;11.372;2023-06-14T07:14:20;101503.78;;;17.69;75.48
61786;BME280;47692;53.714;11.372;2023-06-14T07:16:47;101512.47;;;17.71;74.85
61786;BME280;47692;53.714;11.372;2023-06-14T07:19:14;101515.75;;;17.78;74.39
61786;BME280;47692;53.714;11.372;2023-06-14T07:21:40;101521.97;;;17.99;74.56
61786;BME280;47692;53.714;11.372;2023-06-14T07:24:05;101528.47;;;18.13;71.27
61786;BME280;47692;53.714;11.372;2023-06-14T07:26:31;101528.31;;;18.16;71.99
61786;BME280;47692;53.714;11.372;2023-06-14T07:28:57;101526.22;;;18.24;71.26
61786;BME280;47692;53.714;11.372;2023-06-14T07:31:22;101527.41;;;18.37;69.95
61786;BME280;47692;53.714;11.372;2023-06-14T07:33:47;101523.03;;;18.57;68.64
61786;BME280;47692;53.714;11.372;2023-06-14T07:36:13;101522.66;;;18.66;69.67
61786;BME280;47692;53.714;11.372;2023-06-14T07:38:38;101517.81;;;18.76;69.96
61786;BME280;47692;53.714;11.372;2023-06-14T07:41:05;101514.72;;;18.66;69.80
61786;BME280;47692;53.714;11.372;2023-06-14T07:43:30;101529.25;;;18.77;69.06
61786;BME280;47692;53.714;11.372;2023-06-14T07:45:56;101525.53;;;18.81;69.48
61786;BME280;47692;53.714;11.372;2023-06-14T07:48:22;101527.13;;;18.85;69.50
61786;BME280;47692;53.714;11.372;2023-06-14T07:50:47;101521.44;;;18.94;69.20
61786;BME280;47692;53.714;11.372;2023-06-14T07:53:12;101517.16;;;19.11;68.75
61786;BME280;47692;53.714;11.372;2023-06-14T07:55:38;101513.31;;;19.18;67.94
61786;BME280;47692;53.714;11.372;2023-06-14T07:58:05;101518.75;;;19.15;67.62
61786;BME280;47692;53.714;11.372;2023-06-14T08:00:31;101518.75;;;19.15;67.99
61786;BME280;47692;53.714;11.372;2023-06-14T08:02:57;101517.09;;;19.31;67.33
61786;BME280;47692;53.714;11.372;2023-06-14T08:05:25;101513.13;;;19.59;65.41
61786;BME280;47692;53.714;11.372;2023-06-14T08:07:51;101516.97;;;19.71;65.46
61786;BME280;47692;53.714;11.372;2023-06-14T08:10:16;101513.81;;;19.82;66.09
61786;BME280;47692;53.714;11.372;2023-06-14T08:12:41;101512.59;;;19.89;64.15
61786;BME280;47692;53.714;11.372;2023-06-14T08:15:07;101513.97;;;19.98;63.52
61786;BME280;47692;53.714;11.372;2023-06-14T08:17:33;101514.72;;;20.00;63.33
61786;BME280;47692;53.714;11.372;2023-06-14T08:19:58;101521.50;;;20.06;61.68
61786;BME280;47692;53.714;11.372;2023-06-14T08:22:24;101511.53;;;20.28;61.68
61786;BME280;47692;53.714;11.372;2023-06-14T08:24:50;101517.16;;;20.22;62.00
61786;BME280;47692;53.714;11.372;2023-06-14T08:27:16;101517.63;;;20.30;61.98
61786;BME280;47692;53.714;11.372;2023-06-14T08:29:41;101532.59;;;20.31;62.48
61786;BME280;47692;53.714;11.372;2023-06-14T08:32:07;101525.28;;;20.37;60.89
61786;BME280;47692;53.714;11.372;2023-06-14T08:34:32;101526.19;;;20.53;59.91
61786;BME280;47692;53.714;11.372;2023-06-14T08:36:58;101518.84;;;20.76;57.87
61786;BME280;47692;53.714;11.372;2023-06-14T08:39:23;101524.97;;;20.94;57.27
61786;BME280;47692;53.714;11.372;2023-06-14T08:41:49;101519.94;;;21.05;57.05
61786;BME280;47692;53.714;11.372;2023-06-14T08:44:16;101528.66;;;20.91;56.08
61786;BME280;47692;53.714;11.372;2023-06-14T08:46:42;101518.78;;;20.93;54.52
61786;BME280;47692;53.714;11.372;2023-06-14T08:49:11;101520.97;;;21.03;54.17
61786;BME280;47692;53.714;11.372;2023-06-14T08:51:37;101515.72;;;21.17;53.83
61786;BME280;47692;53.714;11.372;2023-06-14T08:54:03;101513.84;;;21.19;53.07
61786;BME280;47692;53.714;11.372;2023-06-14T08:56:30;101516.19;;;21.25;53.17
61786;BME280;47692;53.714;11.372;2023-06-14T08:58:57;101517.97;;;21.41;52.35
61786;BME280;47692;53.714;11.372;2023-06-14T09:01:26;101522.28;;;21.27;52.20
61786;BME280;47692;53.714;11.372;2023-06-14T09:03:52;101525.78;;;21.28;51.40
61786;BME280;47692;53.714;11.372;2023-06-14T09:06:20;101527.72;;;21.24;51.40
61786;BME280;47692;53.714;11.372;2023-06-14T09:08:48;101509.00;;;21.27;51.88
61786;BME280;47692;53.714;11.372;2023-06-14T09:11:15;101519.34;;;21.16;51.50
61786;BME280;47692;53.714;11.372;2023-06-14T09:13:41;101519.25;;;21.02;50.54
61786;BME280;47692;53.714;11.372;2023-06-14T09:16:07;101513.31;;;20.96;51.32
61786;BME280;47692;53.714;11.372;2023-06-14T09:18:44;101519.06;;;21.05;51.99
61786;BME280;47692;53.714;11.372;2023-06-14T09:21:14;101509.34;;;21.21;52.68
61786;BME280;47692;53.714;11.372;2023-06-14T09:23:48;101507.00;;;21.47;52.70
61786;BME280;47692;53.714;11.372;2023-06-14T09:26:18;101508.75;;;21.64;51.70
61786;BME280;47692;53.714;11.372;2023-06-14T09:28:49;101511.81;;;21.88;49.40
61786;BME280;47692;53.714;11.372;2023-06-14T09:31:19;101511.81;;;21.88;49.67
61786;BME280;47692;53.714;11.372;2023-06-14T09:33:45;101503.06;;;21.86;49.99
61786;BME280;47692;53.714;11.372;2023-06-14T09:36:24;101511.81;;;21.88;50.49
61786;BME280;47692;53.714;11.372;2023-06-14T09:43:58;101506.38;;;22.51;47.26
61786;BME280;47692;53.714;11.372;2023-06-14T09:46:26;101506.19;;;22.68;47.50
61786;BME280;47692;53.714;11.372;2023-06-14T09:48:52;101507.81;;;22.71;47.89
61786;BME280;47692;53.714;11.372;2023-06-14T09:51:18;101502.28;;;22.59;48.17
61786;BME280;47692;53.714;11.372;2023-06-14T09:53:46;101502.66;;;22.82;48.79
61786;BME280;47692;53.714;11.372;2023-06-14T09:56:22;101506.84;;;23.01;46.94
61786;BME280;47692;53.714;11.372;2023-06-14T09:58:49;101496.00;;;23.04;47.14
61786;BME280;47692;53.714;11.372;2023-06-14T10:01:20;101498.28;;;22.96;48.10
61786;BME280;47692;53.714;11.372;2023-06-14T10:03:45;101497.97;;;23.15;47.61
61786;BME280;47692;53.714;11.372;2023-06-14T10:06:12;101489.16;;;23.29;47.66
61786;BME280;47692;53.714;11.372;2023-06-14T10:08:37;101496.75;;;23.35;46.16
61786;BME280;47692;53.714;11.372;2023-06-14T10:11:04;101493.22;;;23.34;46.24
61786;BME280;47692;53.714;11.372;2023-06-14T10:13:31;101483.81;;;23.29;47.53
61786;BME280;47692;53.714;11.372;2023-06-14T10:16:07;101487.81;;;23.07;47.61
61786;BME280;47692;53.714;11.372;2023-06-14T10:24:10;101485.72;;;23.27;47.97
61786;BME280;47692;53.714;11.372;2023-06-14T10:26:50;101483.44;;;23.35;48.69
61786;BME280;47692;53.714;11.372;2023-06-14T10:29:15;101487.75;;;23.50;45.75
61786;BME280;47692;53.714;11.372;2023-06-14T10:34:11;101487.97;;;23.87;46.64
61786;BME280;47692;53.714;11.372;2023-06-14T10:36:38;101479.31;;;23.84;45.73
61786;BME280;47692;53.714;11.372;2023-06-14T10:39:08;101477.59;;;23.70;45.44
61786;BME280;47692;53.714;11.372;2023-06-14T10:41:38;101469.19;;;23.49;46.60
61786;BME280;47692;53.714;11.372;2023-06-14T10:46:39;101472.25;;;23.70;45.85
61786;BME280;47692;53.714;11.372;2023-06-14T10:49:04;101477.06;;;23.78;46.76
61786;BME280;47692;53.714;11.372;2023-06-14T10:51:39;101475.06;;;23.81;47.33
61786;BME280;47692;53.714;11.372;2023-06-14T10:54:13;101467.53;;;23.61;46.41
61786;BME280;47692;53.714;11.372;2023-06-14T10:56:52;101465.41;;;23.38;46.45
61786;BME280;47692;53.714;11.372;2023-06-14T10:59:19;101467.34;;;23.64;46.41
61786;BME280;47692;53.714;11.372;2023-06-14T11:04:49;101464.31;;;23.55;46.99
61786;BME280;47692;53.714;11.372;2023-06-14T11:12:47;101469.03;;;23.65;46.65
61786;BME280;47692;53.714;11.372;2023-06-14T11:15:13;101457.84;;;24.00;45.92
61786;BME280;47692;53.714;11.372;2023-06-14T11:17:39;101464.47;;;24.20;45.98
61786;BME280;47692;53.714;11.372;2023-06-14T11:20:09;101451.97;;;24.08;45.75
61786;BME280;47692;53.714;11.372;2023-06-14T11:22:44;101453.78;;;23.94;45.94
61786;BME280;47692;53.714;11.372;2023-06-14T11:25:11;101454.22;;;24.01;46.65
61786;BME280;47692;53.714;11.372;2023-06-14T11:27:36;101445.03;;;23.92;46.33
61786;BME280;47692;53.714;11.372;2023-06-14T11:30:02;101450.03;;;23.97;45.58
61786;BME280;47692;53.714;11.372;2023-06-14T11:32:27;101453.59;;;24.10;45.96
61786;BME280;47692;53.714;11.372;2023-06-14T11:34:52;101446.06;;;23.90;46.43
61786;BME280;47692;53.714;11.372;2023-06-14T11:37:18;101440.03;;;23.60;46.91
61786;BME280;47692;53.714;11.372;2023-06-14T11:39:44;101440.84;;;23.48;47.33
61786;BME280;47692;53.714;11.372;2023-06-14T11:42:15;101431.13;;;23.87;46.29
61786;BME280;47692;53.714;11.372;2023-06-14T11:44:40;101433.88;;;23.85;46.71
61786;BME280;47692;53.714;11.372;2023-06-14T11:47:05;101430.00;;;24.04;46.46
61786;BME280;47692;53.714;11.372;2023-06-14T11:49:35;101432.59;;;23.78;45.57
61786;BME280;47692;53.714;11.372;2023-06-14T11:52:01;101430.50;;;23.83;46.59
61786;BME280;47692;53.714;11.372;2023-06-14T11:54:26;101429.56;;;23.57;46.82
61786;BME280;47692;53.714;11.372;2023-06-14T11:56:52;101433.53;;;23.64;47.87
61786;BME280;47692;53.714;11.372;2023-06-14T11:59:18;101424.47;;;24.20;46.21
61786;BME280;47692;53.714;11.372;2023-06-14T12:01:43;101426.69;;;24.65;45.25
61786;BME280;47692;53.714;11.372;2023-06-14T12:04:08;101419.91;;;24.98;44.72
61786;BME280;47692;53.714;11.372;2023-06-14T12:06:34;101413.44;;;24.63;43.79
61786;BME280;47692;53.714;11.372;2023-06-14T12:09:05;101416.66;;;24.56;44.82
61786;BME280;47692;53.714;11.372;2023-06-14T12:11:34;101407.69;;;24.57;44.24
61786;BME280;47692;53.714;11.372;2023-06-14T12:14:00;101409.72;;;24.66;43.53
61786;BME280;47692;53.714;11.372;2023-06-14T12:16:31;101420.41;;;25.03;43.80
61786;BME280;47692;53.714;11.372;2023-06-14T12:19:00;101410.41;;;25.42;42.31
61786;BME280;47692;53.714;11.372;2023-06-14T12:21:26;101412.63;;;25.73;42.66
61786;BME280;47692;53.714;11.372;2023-06-14T12:23:53;101407.88;;;25.41;42.96
61786;BME280;47692;53.714;11.372;2023-06-14T12:26:19;101400.03;;;25.26;42.96
61786;BME280;47692;53.714;11.372;2023-06-14T12:28:46;101398.94;;;25.29;42.85
61786;BME280;47692;53.714;11.372;2023-06-14T12:31:13;101402.22;;;25.57;43.08
61786;BME280;47692;53.714;11.372;2023-06-14T12:33:42;101400.84;;;25.51;41.89
61786;BME280;47692;53.714;11.372;2023-06-14T12:36:08;101404.94;;;25.68;41.38
61786;BME280;47692;53.714;11.372;2023-06-14T12:38:34;101402.31;;;25.91;40.29
61786;BME280;47692;53.714;11.372;2023-06-14T12:41:00;101403.31;;;25.90;41.20
61786;BME280;47692;53.714;11.372;2023-06-14T12:43:26;101397.97;;;25.54;42.93
61786;BME280;47692;53.714;11.372;2023-06-14T12:45:52;101397.44;;;25.25;42.17
61786;BME280;47692;53.714;11.372;2023-06-14T12:48:17;101401.72;;;25.52;42.26
61786;BME280;47692;53.714;11.372;2023-06-14T12:50:42;101401.59;;;25.89;41.04
61786;BME280;47692;53.714;11.372;2023-06-14T12:53:08;101398.25;;;26.21;41.06
61786;BME280;47692;53.714;11.372;2023-06-14T12:55:33;101396.06;;;26.15;39.67
61786;BME280;47692;53.714;11.372;2023-06-14T12:57:59;101396.09;;;26.37;38.68
61786;BME280;47692;53.714;11.372;2023-06-14T13:00:24;101384.13;;;26.75;37.80
61786;BME280;47692;53.714;11.372;2023-06-14T13:02:51;101384.34;;;26.95;40.24
61786;BME280;47692;53.714;11.372;2023-06-14T13:05:17;101382.81;;;26.36;41.53